»·PEaware :: UAL1545 KDEN-KEGE

UAL1545 :: KDEN-KEGE

FLIGHT INFORMATION

Flight Status: Arrived
Operator:
United Airlines
More flights by this operator :: More flights under this callsign
Pilot: Luca P. (13273)
Aircraft: AIRBUS A320
(A320)
More flights by this aircraft type
Origin: KDEN Denver Intl
United States
Destination: KEGE Eagle Co Regl
United States
More flights between these airports :: More routes between these airports
Route: FOOOT3 RLG
File this flight plan on PilotEdge
Remarks: PBN / A1B1C1D1L1O1S1 NAV / RNVD1E2A1 DOF / 180107 REG / N411UA SEL / ESBJ CODE / A4D99A OPR / UAL PER / C
Altitude:
(Current/Filed)
24,000ft
Speed:
(Current/Filed)
475kts
Departed: 07-Jan-18 12:01 PM
Arrived: 07-Jan-18 12:46 PM
Distance/Time
Traveled:
104nm/0:45
Distance/Time
To Go:
Arrived

Flight Plot

Page will automatically refresh every two minutes.


Map Options




Map Legend


Flown Route
Filed Route
Departure Airport
Arrival Airport
Navaid (VOR, NDB)
Fix

Horizontal Profiles

Position Reports

Time Latitude Longitude Heading Altitude Ground
Speed
07-Jan-18 11:38 39.859414 -104.677397 180 5445ft 0kts
07-Jan-18 11:39 39.859414 -104.677397 180 5445ft 0kts
07-Jan-18 11:40 39.859414 -104.677397 180 5445ft 0kts
07-Jan-18 11:41 39.859414 -104.677397 180 5445ft 0kts
07-Jan-18 11:42 39.859414 -104.677397 180 5445ft 0kts
07-Jan-18 11:43 39.859414 -104.677397 180 5445ft 0kts
07-Jan-18 11:44 39.859414 -104.677397 180 5445ft 0kts
07-Jan-18 11:45 39.859414 -104.677397 180 5445ft 0kts
07-Jan-18 11:46 39.859414 -104.677397 180 5445ft 0kts
07-Jan-18 11:47 39.859414 -104.677397 180 5445ft 0kts
07-Jan-18 11:48 39.859414 -104.677397 180 5445ft 0kts
07-Jan-18 11:49 39.859414 -104.677397 180 5445ft 0kts
07-Jan-18 11:50 39.859414 -104.677397 180 5445ft 0kts
07-Jan-18 11:51 39.859414 -104.677397 180 5445ft 0kts
07-Jan-18 11:52 39.859414 -104.677397 180 5445ft 0kts
07-Jan-18 11:53 39.859414 -104.677397 180 5445ft 0kts
07-Jan-18 11:54 39.859414 -104.677397 180 5445ft 0kts
07-Jan-18 11:55 39.859414 -104.677397 180 5445ft 0kts
07-Jan-18 11:56 39.859855 -104.677449 161 5445ft 2kts
07-Jan-18 11:57 39.860096 -104.677839 90 5445ft 0kts
07-Jan-18 11:58 39.860096 -104.677839 90 5445ft 0kts
07-Jan-18 11:59 39.860096 -104.677838 90 5445ft 0kts
07-Jan-18 12:00 39.860096 -104.677819 90 5445ft 1kts
07-Jan-18 12:01 39.860654 -104.679669 273 5445ft 11kts
07-Jan-18 12:02 39.860139 -104.683153 249 5445ft 15kts
07-Jan-18 12:03 39.854118 -104.684031 179 5445ft 30kts
07-Jan-18 12:04 39.844311 -104.684146 180 5445ft 36kts
07-Jan-18 12:05 39.842111 -104.684182 182 5445ft 0kts
07-Jan-18 12:06 39.841119 -104.684181 177 5445ft 11kts
07-Jan-18 12:07 39.840843 -104.707448 270 5480ft 164kts
07-Jan-18 12:08 39.844770 -104.770788 301 7480ft 203kts
07-Jan-18 12:09 39.880517 -104.841125 299 8970ft 267kts
07-Jan-18 12:10 39.922744 -104.931074 299 10218ft 325kts
07-Jan-18 12:11 39.953817 -105.047012 280 12569ft 344kts
07-Jan-18 12:12 39.967585 -105.172454 281 14780ft 357kts
07-Jan-18 12:13 39.982769 -105.303095 282 16794ft 369kts
07-Jan-18 12:14 39.981889 -105.440604 272 18642ft 388kts
07-Jan-18 12:15 39.977440 -105.582952 273 20420ft 397kts
07-Jan-18 12:16 39.973401 -105.728676 274 21989ft 407kts
07-Jan-18 12:17 39.972131 -105.877544 279 23434ft 413kts
07-Jan-18 12:18 39.980646 -106.027440 280 24264ft 404kts
07-Jan-18 12:19 39.987859 -106.163841 281 23058ft 358kts
07-Jan-18 12:20 39.994845 -106.292563 280 20316ft 348kts
07-Jan-18 12:21 39.995420 -106.416051 255 17762ft 350kts
07-Jan-18 12:22 39.912448 -106.481574 200 15439ft 365kts
07-Jan-18 12:23 39.819026 -106.519656 202 13766ft 333kts
07-Jan-18 12:24 39.737157 -106.554148 202 13253ft 295kts
07-Jan-18 12:25 39.685494 -106.618929 261 12848ft 260kts
07-Jan-18 12:26 39.673159 -106.703316 261 11897ft 242kts
07-Jan-18 12:27 39.661046 -106.785344 260 10575ft 213kts
07-Jan-18 12:28 39.650786 -106.859817 261 9977ft 227kts
07-Jan-18 12:29 39.638146 -106.945159 254 11470ft 242kts
07-Jan-18 12:30 39.631956 -107.027372 298 13228ft 229kts
07-Jan-18 12:31 39.685796 -107.059347 11 14511ft 237kts
07-Jan-18 12:32 39.730454 -106.992580 51 14513ft 258kts
07-Jan-18 12:33 39.784164 -106.945248 4 14508ft 235kts
07-Jan-18 12:34 39.848157 -106.926619 13 14501ft 238kts
07-Jan-18 12:35 39.903512 -106.878742 29 13942ft 246kts
07-Jan-18 12:36 39.959355 -106.826331 29 13977ft 247kts
07-Jan-18 12:37 40.015060 -106.773874 29 13980ft 249kts
07-Jan-18 12:38 40.071113 -106.720176 29 13984ft 249kts
07-Jan-18 12:39 40.114542 -106.652786 93 14074ft 279kts
07-Jan-18 12:40 40.068507 -106.563282 122 13868ft 307kts
07-Jan-18 12:41 40.016251 -106.475403 144 13921ft 303kts
07-Jan-18 12:42 39.939170 -106.468295 204 13776ft 284kts
07-Jan-18 12:43 39.864990 -106.500454 202 13780ft 277kts
07-Jan-18 12:44 39.792056 -106.531107 203 13771ft 265kts
07-Jan-18 12:45 39.727008 -106.558463 203 12991ft 236kts
07-Jan-18 12:46 39.690103 -106.607354 287 12762ft 192kts
07-Jan-18 12:47 39.679356 -106.671535 251 11689ft 191kts
07-Jan-18 12:48 39.668533 -106.734768 259 10326ft 172kts
07-Jan-18 12:49 39.659501 -106.795867 258 8629ft 172kts
07-Jan-18 12:50 39.650341 -106.852374 259 7410ft 153kts
07-Jan-18 12:51 39.643916 -106.905199 264 6546ft 141kts
07-Jan-18 12:52 39.640792 -106.927990 164 6529ft 21kts
07-Jan-18 12:53 39.641260 -106.919554 81 6529ft 31kts
07-Jan-18 12:54 39.641829 -106.912348 151 6529ft 9kts
07-Jan-18 12:55 39.640826 -106.913825 169 6529ft 2kts
07-Jan-18 12:56 39.640770 -106.913817 174 6529ft 0kts
07-Jan-18 12:57 39.640770 -106.913817 174 6529ft 0kts
07-Jan-18 12:58 39.640770 -106.913817 174 6529ft 0kts
07-Jan-18 12:59 39.640770 -106.913817 174 6529ft 0kts
07-Jan-18 13:00 39.640770 -106.913817 174 6529ft 0kts
07-Jan-18 13:01 39.640770 -106.913817 174 6529ft 0kts
07-Jan-18 13:02 39.640770 -106.913817 174 6529ft 0kts
07-Jan-18 13:03 39.640770 -106.913817 174 6529ft 0kts
07-Jan-18 13:04 39.640770 -106.913817 174 6529ft 0kts

Navigation Log

Ident Type
1. KDEN Airport
2. PENEY Fix
3. RLG Navaid
4. KEGE Airport